Pagina principală
METAR-TAF:

METAR-TAF

Aeroporturi :

Kosrae, Micronezia

Latitudine: 05-21N, longitudine: 162-57E, elevație: 3 m

METAR: lipsă

Ora: 03:38 (16:38 UTC)

Prognoză

Raportul a fost făcut în urmă cu 17 ore și 12 de minute, la 23:26 UTC
Prognoză valabilă de la 24 ora 00 UTC la 24 ora 24 UTC
Vânt 6 kt de la Est/Nord-est
Vizibilitate: 10 km
Nori împrăștiați la o înălțime de 2000 picior
Nori fragmentați la o înălțime de 13000 picior
averse în apropiere

TAF: PTSA 232326Z 2400/2424 07006KT P6SM VCSH SCT020 BKN130

Observații și prognoze meteo pentru peste 4.000 de aeroporturi (rapoarte METAR și TAF).

Stațiile disponibile sunt reprezentate pe hartă prin puncte galbene și roșii.

Țineți indicatorul mouse-ului pe punctul dorit pentru a vedea denumirea stației.

Apoi, faceți clic pentru a vedea observațiile și prognozele meteorologice.

Pentru a schimba harta: Pentru mărire, faceți clic pe butoanele verzi cu cruce neagră; pentru micșorare, pe butonul verde cu o liniuță; pentru hărți învecinate, pe săgețile verzi.


METAR-TAF: